Time;durP1;ratioP1;P1;durP2;ratioP2;P2;SDS_P1;SDS_P2;PMS_P1;PMS_P2;Temp;Humidity;BMP_temperature;BMP_pressure;BME280_temperature;BME280_humidity;BME280_pressure;Samples;Min_cycle;Max_cycle;Signal;HPM_P1;HPM_P2
2024/01/15 00:00:52;;;;;;;16.65;1.08;;;;;;;-146.25;100.00;52680.47;2024504;29;35808;-63
2024/01/15 00:01:54;;;;;;;11.30;0.75;;;;;;;-146.25;100.00;52692.63;2024136;29;32891;-62
2024/01/15 00:02:57;;;;;;;9.38;0.90;;;;;;;-146.25;100.00;52696.69;2024844;29;37518;-62
2024/01/15 00:04:02;;;;;;;17.83;0.77;;;;;;;-146.25;100.00;52692.63;2025426;29;21320;-62
2024/01/15 00:05:05;;;;;;;11.30;0.50;;;;;;;-146.25;100.00;52684.50;2025561;29;20056;-62
2024/01/15 00:06:07;;;;;;;9.98;0.70;;;;;;;-146.25;100.00;52723.03;2024741;29;34490;-63
2024/01/15 00:07:09;;;;;;;15.82;0.90;;;;;;;-146.25;100.00;52725.06;2025476;29;20041;-63
2024/01/15 00:08:12;;;;;;;13.50;0.70;;;;;;;-146.25;100.00;52658.16;2024993;29;36284;-63
2024/01/15 00:09:14;;;;;;;13.50;0.73;;;;;;;-146.25;100.00;52692.63;2024949;29;33623;-62
2024/01/15 00:10:16;;;;;;;6.53;0.60;;;;;;;-146.25;100.00;52704.78;2024630;29;31745;-62
2024/01/15 00:11:18;;;;;;;16.83;1.27;;;;;;;-146.25;100.00;52698.72;2024458;29;36440;-62
2024/01/15 00:12:19;;;;;;;14.57;1.13;;;;;;;-146.25;100.00;52696.69;2025630;29;20051;-62
2024/01/15 00:13:21;;;;;;;9.23;0.57;;;;;;;-146.25;100.00;52716.97;2024752;29;34049;-62
2024/01/15 00:14:23;;;;;;;15.23;0.60;;;;;;;-146.25;100.00;52723.03;2023898;29;35227;-62
2024/01/15 00:15:28;;;;;;;11.02;0.63;;;;;;;-146.25;100.00;52704.78;2024913;29;31891;-63
2024/01/15 00:16:30;;;;;;;15.00;0.77;;;;;;;-146.25;100.00;52692.63;2024715;29;35136;-63
2024/01/15 00:17:32;;;;;;;8.55;0.75;;;;;;;-146.25;100.00;52692.63;2024997;29;20581;-62
2024/01/15 00:18:35;;;;;;;11.55;0.85;;;;;;;-146.25;100.00;52698.72;2024605;29;37143;-62
2024/01/15 00:19:36;;;;;;;8.98;0.70;;;;;;;-146.25;100.00;52670.31;2024469;29;33824;-62
2024/01/15 00:20:38;;;;;;;10.57;0.80;;;;;;;-146.25;100.00;52716.97;2024302;29;35393;-62
2024/01/15 00:21:40;;;;;;;12.05;0.82;;;;;;;-146.25;100.00;52678.44;2024591;29;35022;-62
2024/01/15 00:22:42;;;;;;;12.10;1.02;;;;;;;-146.25;100.00;52698.72;2024559;29;34521;-62
2024/01/15 00:23:47;;;;;;;14.02;0.82;;;;;;;-146.25;100.00;52714.94;2024608;29;36283;-63
2024/01/15 00:24:48;;;;;;;13.05;0.57;;;;;;;-146.25;100.00;52676.41;2025226;29;20109;-62
2024/01/15 00:25:51;;;;;;;9.40;0.85;;;;;;;-146.25;100.00;52731.16;2024847;29;31060;-62
2024/01/15 00:26:56;;;;;;;9.07;0.85;;;;;;;-146.25;100.00;52714.94;2023936;29;35918;-62
2024/01/15 00:28:00;;;;;;;17.58;0.73;;;;;;;-146.25;100.00;52704.78;2023882;29;34001;-62
2024/01/15 00:29:03;;;;;;;9.70;0.60;;;;;;;-146.25;100.00;52670.31;2023793;29;35885;-62
2024/01/15 00:30:05;;;;;;;9.60;0.63;;;;;;;-146.25;100.00;52704.78;2024982;29;25658;-62
2024/01/15 00:31:08;;;;;;;8.52;0.60;;;;;;;-146.25;100.00;52708.84;2024478;29;32956;-63
2024/01/15 00:32:12;;;;;;;18.25;1.35;;;;;;;-146.25;100.00;52688.56;2025033;29;20175;-62
2024/01/15 00:33:14;;;;;;;4.30;0.47;;;;;;;-146.25;100.00;52696.69;2025176;29;20804;-62
2024/01/15 00:34:16;;;;;;;18.02;1.23;;;;;;;-146.25;100.00;52729.13;2023862;29;34663;-62
2024/01/15 00:35:18;;;;;;;10.38;1.02;;;;;;;-146.25;100.00;52747.38;2024173;29;20045;-62
2024/01/15 00:36:20;;;;;;;13.65;0.60;;;;;;;-146.25;100.00;52716.97;2025012;29;36963;-62
2024/01/15 00:37:25;;;;;;;18.25;0.88;;;;;;;-146.25;100.00;52729.13;2024926;29;20902;-62
2024/01/15 00:38:26;;;;;;;13.30;1.02;;;;;;;-146.25;100.00;52666.25;2025605;29;20057;-62
2024/01/15 00:39:28;;;;;;;11.82;0.50;;;;;;;-146.25;100.00;52672.34;2024669;29;34552;-62
2024/01/15 00:40:30;;;;;;;13.45;0.90;;;;;;;-146.25;100.00;52727.09;2024047;29;34104;-62
2024/01/15 00:41:35;;;;;;;10.70;0.65;;;;;;;-146.25;100.00;52723.03;2024431;29;20914;-62
2024/01/15 00:42:38;;;;;;;16.92;0.63;;;;;;;-146.25;100.00;52708.84;2024450;29;35185;-62
2024/01/15 00:43:41;;;;;;;7.50;0.55;;;;;;;-146.25;100.00;52729.13;2024921;29;20125;-62
2024/01/15 00:44:43;;;;;;;13.65;0.93;;;;;;;-146.25;100.00;52682.47;2025278;29;20037;-61
2024/01/15 00:45:45;;;;;;;7.53;0.73;;;;;;;-146.25;100.00;52731.16;2024378;29;36259;-62
2024/01/15 00:46:47;;;;;;;8.73;0.50;;;;;;;-146.25;100.00;52710.88;2023700;29;39213;-61
2024/01/15 00:47:48;;;;;;;8.52;0.85;;;;;;;-146.25;100.00;52690.59;2023527;29;34470;-62
2024/01/15 00:48:50;;;;;;;8.68;0.77;;;;;;;-146.25;100.00;52692.63;2024636;29;36433;-62
2024/01/15 00:49:52;;;;;;;13.13;0.55;;;;;;;-146.25;100.00;52686.53;2024240;29;33983;-62
2024/01/15 00:50:54;;;;;;;11.75;0.70;;;;;;;-146.25;100.00;52696.69;2024368;29;35670;-62
2024/01/15 00:51:58;;;;;;;7.60;0.40;;;;;;;-146.25;100.00;52725.06;2024313;29;34533;-62
2024/01/15 00:53:00;;;;;;;6.78;0.63;;;;;;;-146.25;100.00;52733.19;2024555;29;33178;-62
2024/01/15 00:54:02;;;;;;;6.55;0.43;;;;;;;-146.25;100.00;52704.78;2024469;29;33995;-62
2024/01/15 00:55:07;;;;;;;13.55;0.80;;;;;;;-146.25;100.00;52729.13;2024723;29;20085;-62
2024/01/15 00:56:08;;;;;;;10.68;0.50;;;;;;;-146.25;100.00;52698.72;2023250;29;33228;-62
2024/01/15 00:57:10;;;;;;;12.70;0.68;;;;;;;-146.25;100.00;52708.84;2025247;29;20049;-62
2024/01/15 00:58:12;;;;;;;5.88;0.32;;;;;;;-146.25;100.00;52696.69;2024827;29;32884;-63
2024/01/15 00:59:16;;;;;;;5.38;0.30;;;;;;;-146.25;100.00;52702.75;2024436;29;37140;-62
2024/01/15 01:00:18;;;;;;;6.47;0.47;;;;;;;-146.25;100.00;52710.88;2024920;29;20084;-63
2024/01/15 01:01:22;;;;;;;8.57;0.60;;;;;;;-146.25;100.00;52708.84;2024524;29;34199;-62
2024/01/15 01:02:24;;;;;;;5.93;0.32;;;;;;;-146.25;100.00;52712.91;2024974;29;20116;-62
2024/01/15 01:03:26;;;;;;;8.93;0.40;;;;;;;-146.25;100.00;52698.72;2025160;29;20049;-62
2024/01/15 01:04:29;;;;;;;7.88;0.45;;;;;;;-146.25;100.00;52723.03;2025015;29;20037;-63
2024/01/15 01:05:31;;;;;;;11.80;0.43;;;;;;;-146.25;100.00;52733.19;2024465;29;35715;-62
2024/01/15 01:06:33;;;;;;;8.43;0.60;;;;;;;-146.25;100.00;52700.72;2024146;29;32533;-62
2024/01/15 01:07:35;;;;;;;7.45;0.63;;;;;;;-146.25;100.00;52725.06;2024950;29;20045;-62
2024/01/15 01:08:38;;;;;;;7.80;0.60;;;;;;;-146.25;100.00;52704.78;2024251;29;31783;-62
2024/01/15 01:09:40;;;;;;;7.60;0.45;;;;;;;-146.25;100.00;52690.59;2024466;29;33336;-62
2024/01/15 01:10:45;;;;;;;7.78;0.52;;;;;;;-146.25;100.00;52684.50;2023698;29;34260;-62
2024/01/15 01:11:46;;;;;;;8.50;0.35;;;;;;;-146.25;100.00;52716.97;2023521;29;34905;-62
2024/01/15 01:12:48;;;;;;;6.65;0.30;;;;;;;-146.25;100.00;52721.00;2024239;29;20090;-62
2024/01/15 01:13:52;;;;;;;9.80;0.40;;;;;;;-146.25;100.00;52729.13;2024862;29;20045;-63
2024/01/15 01:14:54;;;;;;;6.35;0.45;;;;;;;-146.25;100.00;52729.13;2024703;29;21013;-61
2024/01/15 01:15:55;;;;;;;10.85;0.77;;;;;;;-146.25;100.00;52684.50;2024446;29;34017;-62
2024/01/15 01:16:57;;;;;;;9.93;0.43;;;;;;;-146.25;100.00;52700.72;2024080;29;36111;-62
2024/01/15 01:17:59;;;;;;;7.43;0.57;;;;;;;-146.25;100.00;52690.59;2024221;29;35457;-62
2024/01/15 01:19:01;;;;;;;8.52;0.73;;;;;;;-146.25;100.00;52704.78;2024283;29;35068;-62
2024/01/15 01:20:08;;;;;;;9.38;0.68;;;;;;;-146.25;100.00;52706.81;2024252;29;34517;-62
2024/01/15 01:21:10;;;;;;;8.80;0.45;;;;;;;-146.25;100.00;52688.56;2024241;29;37726;-62
2024/01/15 01:22:12;;;;;;;9.38;0.70;;;;;;;-146.25;100.00;52696.69;2024106;29;35097;-62
2024/01/15 01:23:13;;;;;;;11.63;0.60;;;;;;;-146.25;100.00;52716.97;2024001;29;34955;-62
2024/01/15 01:24:17;;;;;;;11.88;0.60;;;;;;;-146.25;100.00;52700.72;2024470;29;36961;-62
2024/01/15 01:25:19;;;;;;;14.52;0.70;;;;;;;-146.25;100.00;52680.47;2024626;29;20044;-62
2024/01/15 01:26:21;;;;;;;7.80;0.40;;;;;;;-146.25;100.00;52723.03;2024148;29;38745;-62
2024/01/15 01:27:23;;;;;;;8.23;0.40;;;;;;;-146.25;100.00;52723.03;2024818;29;20108;-62
2024/01/15 01:28:25;;;;;;;10.27;0.60;;;;;;;-146.25;100.00;52686.53;2035856;23;37915;-64
2024/01/15 01:29:29;;;;;;;9.50;0.60;;;;;;;-146.25;100.00;52678.44;2027333;29;32538;-64
2024/01/15 01:30:30;;;;;;;9.48;0.47;;;;;;;-146.25;100.00;52731.16;2015954;29;35474;-64
2024/01/15 01:31:32;;;;;;;12.20;0.60;;;;;;;-146.25;100.00;52676.41;2015832;29;38604;-65
2024/01/15 01:32:35;;;;;;;16.67;0.68;;;;;;;-146.25;100.00;52692.63;2016539;29;20089;-64
2024/01/15 01:33:40;;;;;;;10.80;0.68;;;;;;;-146.25;100.00;52676.41;2015822;29;35764;-64
2024/01/15 01:34:42;;;;;;;9.25;0.57;;;;;;;-146.25;100.00;52733.19;2024325;29;33166;-64
2024/01/15 01:35:45;;;;;;;13.65;0.68;;;;;;;-146.25;100.00;52716.97;2024015;29;28899;-64
2024/01/15 01:36:46;;;;;;;8.65;0.47;;;;;;;-146.25;100.00;52700.72;2024324;29;36718;-64
2024/01/15 01:37:48;;;;;;;10.90;0.60;;;;;;;-146.25;100.00;52698.72;2024608;29;20103;-64
2024/01/15 01:38:50;;;;;;;6.50;0.43;;;;;;;-146.25;100.00;52721.00;2024376;29;32243;-64
2024/01/15 01:39:52;;;;;;;12.77;0.90;;;;;;;-146.25;100.00;52702.75;2023998;29;33160;-64
2024/01/15 01:40:54;;;;;;;8.75;0.80;;;;;;;-146.25;100.00;52718.97;2019328;29;33082;-64
2024/01/15 01:41:55;;;;;;;11.90;0.73;;;;;;;-146.25;100.00;52733.19;2016438;29;39068;-64
2024/01/15 01:42:58;;;;;;;16.73;0.95;;;;;;;-146.25;100.00;52716.97;2017382;29;20167;-65
2024/01/15 01:43:59;;;;;;;13.52;0.82;;;;;;;-146.25;100.00;52704.78;2016353;29;38634;-64
2024/01/15 01:45:01;;;;;;;10.75;0.93;;;;;;;-146.25;100.00;52700.72;2016976;29;20163;-64
2024/01/15 01:46:04;;;;;;;9.95;0.63;;;;;;;-146.25;100.00;52704.78;2016245;29;30114;-64
2024/01/15 01:47:07;;;;;;;12.38;0.45;;;;;;;-146.25;100.00;52706.81;2015785;29;37070;-64
2024/01/15 01:48:09;;;;;;;11.95;0.82;;;;;;;-146.25;100.00;52708.84;2016070;29;20046;-64
2024/01/15 01:49:11;;;;;;;16.00;1.13;;;;;;;-146.25;100.00;52692.63;2016378;29;37414;-64
2024/01/15 01:50:16;;;;;;;11.10;0.70;;;;;;;-146.25;100.00;52706.81;2016100;29;35520;-64
2024/01/15 01:51:21;;;;;;;16.65;0.82;;;;;;;-146.25;100.00;52729.13;2016642;29;34217;-64
2024/01/15 01:52:26;;;;;;;8.35;0.52;;;;;;;-146.25;100.00;52723.03;2015361;29;36814;-64
2024/01/15 01:53:31;;;;;;;9.82;0.68;;;;;;;-146.25;100.00;52729.13;2008146;29;36633;-64
2024/01/15 01:54:35;;;;;;;14.10;0.60;;;;;;;-146.25;100.00;52704.78;2008370;29;34722;-64
2024/01/15 01:55:40;;;;;;;18.15;0.95;;;;;;;-146.25;100.00;52698.72;2016680;29;33984;-64
2024/01/15 01:56:42;;;;;;;9.65;0.45;;;;;;;-146.25;100.00;52692.63;2015535;29;33154;-64
2024/01/15 01:57:44;;;;;;;10.77;1.10;;;;;;;-146.25;100.00;52708.84;2015500;29;35539;-64
2024/01/15 01:58:47;;;;;;;10.50;0.70;;;;;;;-146.25;100.00;52696.69;2016953;29;20053;-64
2024/01/15 01:59:50;;;;;;;10.65;0.90;;;;;;;-146.25;100.00;52662.22;2018564;29;30780;-64
2024/01/15 02:00:53;;;;;;;11.13;0.73;;;;;;;-146.25;100.00;52678.44;2015682;29;35592;-64
2024/01/15 02:01:57;;;;;;;14.60;1.05;;;;;;;-146.25;100.00;52714.94;2016574;29;32602;-64
2024/01/15 02:03:00;;;;;;;14.60;0.80;;;;;;;-146.25;100.00;52763.59;2016295;29;31171;-64
2024/01/15 02:04:03;;;;;;;9.43;0.65;;;;;;;-146.25;100.00;52702.75;2017131;29;20118;-64
2024/01/15 02:05:08;;;;;;;10.45;0.47;;;;;;;-146.25;100.00;52710.88;2016528;29;37569;-64
2024/01/15 02:06:10;;;;;;;10.20;0.50;;;;;;;-146.25;100.00;52741.28;2016540;29;33606;-65
2024/01/15 02:07:12;;;;;;;11.38;1.10;;;;;;;-146.25;100.00;52723.03;2015912;29;34139;-64
2024/01/15 02:08:17;;;;;;;11.10;1.08;;;;;;;-146.25;100.00;52714.94;2016285;29;37489;-64
2024/01/15 02:09:21;;;;;;;9.05;0.80;;;;;;;-146.25;100.00;52712.91;2016633;29;21030;-64
2024/01/15 02:10:23;;;;;;;17.30;0.80;;;;;;;-146.25;100.00;52723.03;2016076;29;34321;-65
2024/01/15 02:11:25;;;;;;;11.38;0.50;;;;;;;-146.25;100.00;52702.75;2016103;29;34270;-63
2024/01/15 02:12:26;;;;;;;9.93;0.52;;;;;;;-146.25;100.00;52682.47;2016353;29;34764;-64
2024/01/15 02:13:28;;;;;;;7.85;0.60;;;;;;;-146.25;100.00;52712.91;2015947;29;35681;-64
2024/01/15 02:14:30;;;;;;;13.35;0.80;;;;;;;-146.25;100.00;52710.88;2016326;29;34267;-64
2024/01/15 02:15:32;;;;;;;7.05;0.32;;;;;;;-146.25;100.00;52708.84;2016118;29;34695;-64
2024/01/15 02:16:34;;;;;;;9.68;0.40;;;;;;;-146.25;100.00;52686.53;2015784;29;33718;-63
2024/01/15 02:18:03;;;;;;;8.32;0.40;;;;;;;-146.25;100.00;52698.72;2016241;29;35791;-64
2024/01/15 02:19:05;;;;;;;8.80;0.63;;;;;;;-146.25;100.00;52718.97;2015653;29;34358;-65
2024/01/15 02:20:07;;;;;;;9.77;0.47;;;;;;;-146.25;100.00;52739.25;2015943;29;35325;-64
2024/01/15 02:21:10;;;;;;;10.07;0.80;;;;;;;-146.25;100.00;52698.72;2016166;29;20772;-64
2024/01/15 02:22:12;;;;;;;10.27;0.50;;;;;;;-146.25;100.00;52694.66;2016341;29;37734;-64
2024/01/15 02:23:18;;;;;;;7.63;0.35;;;;;;;-146.25;100.00;52686.53;2007625;29;30616;-64
2024/01/15 02:24:20;;;;;;;10.48;0.68;;;;;;;-146.25;100.00;52735.22;2009112;29;28771;-64
2024/01/15 02:25:23;;;;;;;6.32;0.35;;;;;;;-146.25;100.00;52704.78;2015377;29;32358;-64
2024/01/15 02:26:26;;;;;;;11.20;0.35;;;;;;;-146.25;100.00;52718.97;2008505;29;20041;-64
2024/01/15 02:27:28;;;;;;;5.22;0.30;;;;;;;-146.25;100.00;52686.53;2008271;29;37196;-64
2024/01/15 02:28:30;;;;;;;11.48;0.40;;;;;;;-146.25;100.00;52729.13;2016073;29;33241;-65
2024/01/15 02:29:32;;;;;;;4.78;0.47;;;;;;;-146.25;100.00;52716.97;2015938;29;20041;-63
2024/01/15 02:30:39;;;;;;;7.68;0.40;;;;;;;-146.25;100.00;52676.41;2007684;29;36317;-64
2024/01/15 02:31:40;;;;;;;12.38;0.52;;;;;;;-146.25;100.00;52696.69;2008606;29;37494;-64
2024/01/15 02:32:45;;;;;;;12.07;0.82;;;;;;;-146.25;100.00;52702.75;2015905;29;34867;-64
2024/01/15 02:33:47;;;;;;;12.77;0.60;;;;;;;-146.25;100.00;52696.69;2015969;29;32155;-64
2024/01/15 02:34:49;;;;;;;10.10;0.40;;;;;;;-146.25;100.00;52692.63;2015937;29;35510;-63
2024/01/15 02:35:51;;;;;;;14.07;0.57;;;;;;;-146.25;100.00;52688.56;2016477;29;20165;-64
2024/01/15 02:36:55;;;;;;;10.02;0.38;;;;;;;-146.25;100.00;52700.72;2016144;29;38147;-64
2024/01/15 02:37:57;;;;;;;13.32;0.73;;;;;;;-146.25;100.00;52712.91;2016308;29;20037;-64
2024/01/15 02:38:58;;;;;;;7.88;0.60;;;;;;;-146.25;100.00;52680.47;2015612;29;36373;-64
2024/01/15 02:40:03;;;;;;;8.85;0.55;;;;;;;-146.25;100.00;52739.25;2015321;29;35210;-64
2024/01/15 02:41:05;;;;;;;7.68;0.50;;;;;;;-146.25;100.00;52702.75;2016026;29;32658;-64
2024/01/15 02:42:07;;;;;;;12.82;0.60;;;;;;;-146.25;100.00;52721.00;2016104;29;38168;-64
2024/01/15 02:43:08;;;;;;;7.38;0.40;;;;;;;-146.25;100.00;52743.31;2016717;29;20424;-64
2024/01/15 02:44:10;;;;;;;11.77;0.45;;;;;;;-146.25;100.00;52678.44;2016601;29;20046;-64
2024/01/15 02:45:17;;;;;;;8.77;0.60;;;;;;;-146.25;100.00;52700.72;2016593;29;20041;-64
2024/01/15 02:46:18;;;;;;;6.38;0.38;;;;;;;-146.25;100.00;52668.28;2015545;29;34277;-64
2024/01/15 02:47:20;;;;;;;8.20;0.40;;;;;;;-146.25;100.00;52704.78;2016444;29;34873;-64
2024/01/15 02:48:22;;;;;;;12.80;0.70;;;;;;;-146.25;100.00;52684.50;2016321;29;36400;-64
2024/01/15 02:49:24;;;;;;;7.30;0.63;;;;;;;-146.25;100.00;52714.94;2015115;29;32667;-65
2024/01/15 02:50:26;;;;;;;6.93;0.60;;;;;;;-146.25;100.00;52708.84;2015793;29;36176;-64
2024/01/15 02:51:27;;;;;;;7.68;1.02;;;;;;;-146.25;100.00;52684.50;2016397;29;34827;-65
2024/01/15 02:52:29;;;;;;;15.93;0.75;;;;;;;-146.25;100.00;52670.31;2016512;29;20049;-66
2024/01/15 02:53:31;;;;;;;11.85;0.93;;;;;;;-146.25;100.00;52680.47;2016334;29;20045;-65
2024/01/15 02:54:33;;;;;;;14.95;0.65;;;;;;;-146.25;100.00;52708.84;2015331;29;33531;-65
2024/01/15 02:55:35;;;;;;;6.43;0.65;;;;;;;-146.25;100.00;52733.19;2016307;29;35056;-65
2024/01/15 02:56:36;;;;;;;11.68;0.47;;;;;;;-146.25;100.00;52723.03;2016194;29;20049;-65
2024/01/15 02:57:38;;;;;;;8.02;0.55;;;;;;;-146.25;100.00;52747.38;2016117;29;39118;-65
2024/01/15 02:58:42;;;;;;;8.82;0.50;;;;;;;-146.25;100.00;52702.75;2016474;29;20153;-65
2024/01/15 02:59:44;;;;;;;7.60;0.40;;;;;;;-146.25;100.00;52698.72;2015885;29;37034;-65
2024/01/15 03:00:46;;;;;;;12.65;0.55;;;;;;;-146.25;100.00;52712.91;2015805;29;20049;-65
2024/01/15 03:01:49;;;;;;;7.45;0.73;;;;;;;-146.25;100.00;52692.63;2007782;29;37128;-64
2024/01/15 03:02:51;;;;;;;10.60;0.52;;;;;;;-146.25;100.00;52672.34;2007681;29;37374;-65
2024/01/15 03:03:55;;;;;;;11.07;0.85;;;;;;;-146.25;100.00;52749.41;2008041;29;30282;-65
2024/01/15 03:04:59;;;;;;;9.60;0.63;;;;;;;-146.25;100.00;52690.59;2008321;29;38814;-64
2024/01/15 03:06:02;;;;;;;13.35;0.70;;;;;;;-146.25;100.00;52725.06;2016833;29;20937;-65
2024/01/15 03:07:04;;;;;;;14.32;0.90;;;;;;;-146.25;100.00;52721.00;2007171;29;36394;-65
2024/01/15 03:08:06;;;;;;;14.20;0.63;;;;;;;-146.25;100.00;52692.63;2007701;29;37612;-65
2024/01/15 03:09:08;;;;;;;8.00;0.80;;;;;;;-146.25;100.00;52696.69;2007779;29;32917;-65
2024/01/15 03:10:10;;;;;;;10.27;0.50;;;;;;;-146.25;100.00;52678.44;2015992;29;38478;-65
2024/01/15 03:11:12;;;;;;;10.57;0.60;;;;;;;-146.25;100.00;52725.06;2015511;29;33883;-65
2024/01/15 03:12:18;;;;;;;7.22;0.57;;;;;;;-146.25;100.00;52710.88;2016692;29;32707;-65
2024/01/15 03:13:19;;;;;;;9.75;0.45;;;;;;;-146.25;100.00;52692.63;2015950;29;20049;-65
2024/01/15 03:14:24;;;;;;;12.93;0.60;;;;;;;-146.25;100.00;52723.03;2016198;29;36018;-65
2024/01/15 03:15:28;;;;;;;10.10;0.50;;;;;;;-146.25;100.00;52721.00;2015539;29;35792;-65
2024/01/15 03:16:32;;;;;;;11.68;0.70;;;;;;;-146.25;100.00;52700.72;2016436;29;20056;-65
2024/01/15 03:17:34;;;;;;;8.02;0.52;;;;;;;-146.25;100.00;52696.69;2015285;29;28972;-65
2024/01/15 03:18:35;;;;;;;8.85;0.60;;;;;;;-146.25;100.00;52714.94;2016123;29;29831;-65
2024/01/15 03:19:37;;;;;;;10.07;0.50;;;;;;;-146.25;100.00;52716.97;2017444;29;20049;-65
2024/01/15 03:20:39;;;;;;;14.13;0.73;;;;;;;-146.25;100.00;52704.78;2017273;29;35819;-64
2024/01/15 03:21:41;;;;;;;10.20;0.50;;;;;;;-146.25;100.00;52694.66;2017117;29;36050;-65
2024/01/15 03:22:43;;;;;;;12.93;0.70;;;;;;;-146.25;100.00;52690.59;2018090;29;21295;-65
2024/01/15 03:23:45;;;;;;;13.43;0.80;;;;;;;-146.25;100.00;52678.44;2016976;29;35057;-65
2024/01/15 03:24:46;;;;;;;14.75;0.60;;;;;;;-146.25;100.00;52737.22;2017538;29;33162;-64
2024/01/15 03:25:49;;;;;;;9.48;0.68;;;;;;;-146.25;100.00;52708.84;2017676;29;20048;-64
2024/01/15 03:26:50;;;;;;;15.55;0.85;;;;;;;-146.25;100.00;52678.44;2017043;29;36402;-64
2024/01/15 03:27:52;;;;;;;12.55;0.60;;;;;;;-146.25;100.00;52716.97;2017083;29;33399;-65
2024/01/15 03:28:54;;;;;;;11.85;0.60;;;;;;;-146.25;100.00;52704.78;2017384;29;35413;-64
2024/01/15 03:29:56;;;;;;;12.10;0.75;;;;;;;-146.25;100.00;52694.66;2017016;29;35874;-64
2024/01/15 03:30:57;;;;;;;11.43;0.57;;;;;;;-146.25;100.00;52698.72;2017455;29;33324;-64
2024/01/15 03:31:59;;;;;;;11.68;0.75;;;;;;;-146.25;100.00;52712.91;2016743;29;38001;-64
2024/01/15 03:33:01;;;;;;;9.45;0.65;;;;;;;-146.25;100.00;52725.06;2017350;29;33390;-64
2024/01/15 03:34:03;;;;;;;11.38;0.60;;;;;;;-146.25;100.00;52704.78;2018112;29;20838;-65
2024/01/15 03:35:05;;;;;;;10.77;0.75;;;;;;;-146.25;100.00;52690.59;2017044;29;32126;-64
2024/01/15 03:36:08;;;;;;;14.63;0.80;;;;;;;-146.25;100.00;52706.81;2016490;29;33338;-65
2024/01/15 03:37:10;;;;;;;11.88;0.50;;;;;;;-146.25;100.00;52733.19;2016802;29;34984;-65
2024/01/15 03:38:12;;;;;;;14.10;0.77;;;;;;;-146.25;100.00;52721.00;2017207;29;37237;-65
2024/01/15 03:39:13;;;;;;;12.82;0.60;;;;;;;-146.25;100.00;52729.13;2017278;29;34722;-64
2024/01/15 03:40:15;;;;;;;8.63;0.68;;;;;;;-146.25;100.00;52721.00;2017101;29;32260;-65
2024/01/15 03:41:20;;;;;;;8.52;0.52;;;;;;;-146.25;100.00;52704.78;2017269;29;34634;-65
2024/01/15 03:42:22;;;;;;;9.15;1.35;;;;;;;-146.25;100.00;52721.00;2017338;29;20938;-65
2024/01/15 03:43:24;;;;;;;16.40;0.60;;;;;;;-146.25;100.00;52725.06;2017930;29;20839;-64
2024/01/15 03:44:26;;;;;;;14.43;0.88;;;;;;;-146.25;100.00;52684.50;2017035;29;37320;-65
2024/01/15 03:45:27;;;;;;;13.68;0.70;;;;;;;-146.25;100.00;52708.84;2017067;29;37843;-64
2024/01/15 03:46:29;;;;;;;10.48;0.70;;;;;;;-146.25;100.00;52735.22;2017706;29;20037;-64
2024/01/15 03:47:31;;;;;;;15.45;0.73;;;;;;;-146.25;100.00;52735.22;2017318;29;38108;-63
2024/01/15 03:48:33;;;;;;;12.23;0.55;;;;;;;-146.25;100.00;52700.72;2016807;29;34491;-65
2024/01/15 03:49:35;;;;;;;11.23;0.55;;;;;;;-146.25;100.00;52672.34;2017955;29;20093;-65
2024/01/15 03:50:36;;;;;;;10.77;0.70;;;;;;;-146.25;100.00;52718.97;2017265;29;24058;-63
2024/01/15 03:51:38;;;;;;;13.18;0.70;;;;;;;-146.25;100.00;52745.34;2017366;29;27210;-64
2024/01/15 03:52:40;;;;;;;15.05;0.77;;;;;;;-146.25;100.00;52712.91;2017739;29;20171;-64
2024/01/15 03:53:45;;;;;;;6.55;0.32;;;;;;;-146.25;100.00;52712.91;2017276;29;20046;-65
2024/01/15 03:54:47;;;;;;;11.88;0.65;;;;;;;-146.25;100.00;52692.63;2016988;29;35265;-65
2024/01/15 03:55:50;;;;;;;10.95;0.65;;;;;;;-146.25;100.00;52690.59;2017177;29;34290;-64
2024/01/15 03:56:51;;;;;;;13.07;0.60;;;;;;;-146.25;100.00;52696.69;2016554;29;32662;-64
2024/01/15 03:57:53;;;;;;;13.48;0.82;;;;;;;-146.25;100.00;52716.97;2016504;29;33371;-65
2024/01/15 03:58:55;;;;;;;11.93;0.60;;;;;;;-146.25;100.00;52712.91;2016559;29;34700;-65
2024/01/15 03:59:59;;;;;;;16.40;0.75;;;;;;;-146.25;100.00;52702.75;2008631;29;36086;-64
2024/01/15 04:01:01;;;;;;;17.48;1.02;;;;;;;-146.25;100.00;52708.84;2008823;29;33532;-65
2024/01/15 04:02:04;;;;;;;18.15;1.20;;;;;;;-146.25;100.00;52712.91;2017053;29;33218;-64
2024/01/15 04:03:06;;;;;;;12.23;0.90;;;;;;;-146.25;100.00;52700.72;2016115;29;32801;-64
2024/01/15 04:04:08;;;;;;;23.10;1.00;;;;;;;-146.25;100.00;52735.22;2016874;29;20885;-64
2024/01/15 04:05:10;;;;;;;13.05;1.13;;;;;;;-146.25;100.00;52696.69;2016387;29;35282;-64
2024/01/15 04:06:14;;;;;;;21.27;1.48;;;;;;;-146.25;100.00;52706.81;2017582;29;20050;-64
2024/01/15 04:07:16;;;;;;;17.55;1.05;;;;;;;-146.25;100.00;52712.91;2017450;29;34109;-65
2024/01/15 04:08:18;;;;;;;10.70;0.68;;;;;;;-146.25;100.00;52686.53;2017849;29;20162;-64
2024/01/15 04:09:19;;;;;;;13.63;0.77;;;;;;;-146.25;100.00;52684.50;2016497;29;37036;-64
2024/01/15 04:10:21;;;;;;;17.02;0.60;;;;;;;-146.25;100.00;52680.47;2017512;29;28272;-64
2024/01/15 04:11:23;;;;;;;14.98;0.75;;;;;;;-146.25;100.00;52686.53;2015914;29;34409;-64
2024/01/15 04:12:25;;;;;;;14.73;0.80;;;;;;;-146.25;100.00;52721.00;2016155;29;37679;-64
2024/01/15 04:13:34;;;;;;;15.68;1.15;;;;;;;-146.25;100.00;52674.38;2017634;29;20042;-64
2024/01/15 04:14:36;;;;;;;15.50;0.60;;;;;;;-146.25;100.00;52688.56;2017115;29;37499;-64
2024/01/15 04:15:37;;;;;;;14.18;1.02;;;;;;;-146.25;100.00;52714.94;2016705;29;31513;-65
2024/01/15 04:16:39;;;;;;;18.17;1.23;;;;;;;-146.25;100.00;52710.88;2017097;29;33082;-64
2024/01/15 04:17:41;;;;;;;11.43;0.57;;;;;;;-146.25;100.00;52731.16;2016958;29;34966;-64
2024/01/15 04:18:43;;;;;;;14.45;1.00;;;;;;;-146.25;100.00;52684.50;2017897;29;20048;-64
2024/01/15 04:19:45;;;;;;;7.35;0.82;;;;;;;-146.25;100.00;52708.84;2016604;29;35795;-65
2024/01/15 04:20:49;;;;;;;11.73;0.90;;;;;;;-146.25;100.00;52721.00;2017846;29;20045;-64
2024/01/15 04:21:51;;;;;;;13.98;0.93;;;;;;;-146.25;100.00;52725.06;2016314;29;34545;-64
2024/01/15 04:22:53;;;;;;;11.85;0.65;;;;;;;-146.25;100.00;52727.09;2016195;29;35653;-64
2024/01/15 04:23:54;;;;;;;14.88;0.82;;;;;;;-146.25;100.00;52714.94;2016328;29;20034;-64
2024/01/15 04:24:56;;;;;;;14.95;1.00;;;;;;;-146.25;100.00;52714.94;2016956;29;37093;-64
2024/01/15 04:25:58;;;;;;;10.52;0.80;;;;;;;-146.25;100.00;52725.06;2017275;29;20876;-64
2024/01/15 04:27:00;;;;;;;10.05;0.88;;;;;;;-146.25;100.00;52668.28;2016774;29;30513;-64
2024/01/15 04:28:02;;;;;;;15.25;1.10;;;;;;;-146.25;100.00;52660.19;2000817;29;33567;-64
2024/01/15 04:29:06;;;;;;;11.18;0.70;;;;;;;-146.25;100.00;52686.53;2001124;29;32956;-64
2024/01/15 04:30:09;;;;;;;11.20;1.05;;;;;;;-146.25;100.00;52706.81;2016341;29;36343;-65
2024/01/15 04:31:22;;;;;;;16.83;0.70;;;;;;;-146.25;100.00;52704.78;2017107;29;34376;-65
2024/01/15 04:32:26;;;;;;;15.98;0.82;;;;;;;-146.25;100.00;52700.72;2016563;29;33588;-64
2024/01/15 04:33:28;;;;;;;11.55;1.25;;;;;;;-146.25;100.00;52690.59;2017659;29;20045;-64
2024/01/15 04:34:30;;;;;;;9.38;0.77;;;;;;;-146.25;100.00;52684.50;2016577;29;34972;-64
2024/01/15 04:35:33;;;;;;;14.07;1.08;;;;;;;-146.25;100.00;52710.88;2016806;29;34735;-64
2024/01/15 04:36:40;;;;;;;13.75;0.90;;;;;;;-146.25;100.00;52700.72;2017148;29;21046;-64
2024/01/15 04:37:43;;;;;;;21.40;1.13;;;;;;;-146.25;100.00;52708.84;2016194;29;35816;-64
2024/01/15 04:38:44;;;;;;;11.95;0.95;;;;;;;-146.25;100.00;52745.34;2016295;29;20170;-64
2024/01/15 04:39:46;;;;;;;19.48;1.33;;;;;;;-146.25;100.00;52680.47;2017110;29;31291;-64
2024/01/15 04:40:48;;;;;;;11.65;0.95;;;;;;;-146.25;100.00;52716.97;2015866;29;37382;-64
2024/01/15 04:41:50;;;;;;;14.38;1.05;;;;;;;-146.25;100.00;52714.94;2017530;29;21417;-64
2024/01/15 04:42:51;;;;;;;14.30;1.00;;;;;;;-146.25;100.00;52696.69;2016488;29;36265;-65